sensor_id;sensor_type;location;lat;lon;timestamp;temperature;humidity
64961;SHT31;51487;52.266;10.542;2023-09-30T00:00:27;14.68;93.73
64961;SHT31;51487;52.266;10.542;2023-09-30T00:02:53;14.61;93.78
64961;SHT31;51487;52.266;10.542;2023-09-30T00:05:18;14.57;93.93
64961;SHT31;51487;52.266;10.542;2023-09-30T00:07:46;14.47;94.32
64961;SHT31;51487;52.266;10.542;2023-09-30T00:10:12;14.42;94.47
64961;SHT31;51487;52.266;10.542;2023-09-30T00:12:38;14.47;94.32
64961;SHT31;51487;52.266;10.542;2023-09-30T00:15:04;14.44;94.48
64961;SHT31;51487;52.266;10.542;2023-09-30T00:17:30;14.41;94.58
64961;SHT31;51487;52.266;10.542;2023-09-30T00:19:55;14.41;94.67
64961;SHT31;51487;52.266;10.542;2023-09-30T00:22:21;14.38;94.67
64961;SHT31;51487;52.266;10.542;2023-09-30T00:24:47;14.35;94.66
64961;SHT31;51487;52.266;10.542;2023-09-30T00:27:13;14.28;94.77
64961;SHT31;51487;52.266;10.542;2023-09-30T00:29:38;14.28;94.86
64961;SHT31;51487;52.266;10.542;2023-09-30T00:32:04;14.33;94.76
64961;SHT31;51487;52.266;10.542;2023-09-30T00:34:36;14.23;95.07
64961;SHT31;51487;52.266;10.542;2023-09-30T00:37:02;14.23;95.00
64961;SHT31;51487;52.266;10.542;2023-09-30T00:39:28;14.07;95.23
64961;SHT31;51487;52.266;10.542;2023-09-30T00:41:57;14.17;95.04
64961;SHT31;51487;52.266;10.542;2023-09-30T00:44:26;14.16;94.97
64961;SHT31;51487;52.266;10.542;2023-09-30T00:46:52;14.07;95.16
64961;SHT31;51487;52.266;10.542;2023-09-30T00:49:18;14.07;95.08
64961;SHT31;51487;52.266;10.542;2023-09-30T00:51:46;13.97;95.59
64961;SHT31;51487;52.266;10.542;2023-09-30T00:54:12;13.93;95.49
64961;SHT31;51487;52.266;10.542;2023-09-30T00:56:44;13.99;95.51
64961;SHT31;51487;52.266;10.542;2023-09-30T00:59:14;13.89;95.63
64961;SHT31;51487;52.266;10.542;2023-09-30T01:01:45;13.87;95.65
64961;SHT31;51487;52.266;10.542;2023-09-30T01:04:12;13.89;95.50
64961;SHT31;51487;52.266;10.542;2023-09-30T01:06:38;13.87;95.25
64961;SHT31;51487;52.266;10.542;2023-09-30T01:09:04;13.87;95.32
64961;SHT31;51487;52.266;10.542;2023-09-30T01:11:30;13.86;95.45
64961;SHT31;51487;52.266;10.542;2023-09-30T01:13:56;13.87;95.32
64961;SHT31;51487;52.266;10.542;2023-09-30T01:16:23;13.89;95.30
64961;SHT31;51487;52.266;10.542;2023-09-30T01:18:49;13.83;95.42
64961;SHT31;51487;52.266;10.542;2023-09-30T01:21:15;13.79;95.53
64961;SHT31;51487;52.266;10.542;2023-09-30T01:23:41;13.77;95.80
64961;SHT31;51487;52.266;10.542;2023-09-30T01:26:11;13.82;95.43
64961;SHT31;51487;52.266;10.542;2023-09-30T01:28:38;13.79;95.42
64961;SHT31;51487;52.266;10.542;2023-09-30T01:31:04;13.77;95.41
64961;SHT31;51487;52.266;10.542;2023-09-30T01:33:31;13.76;95.34
64961;SHT31;51487;52.266;10.542;2023-09-30T01:35:58;13.79;95.31
64961;SHT31;51487;52.266;10.542;2023-09-30T01:38:25;13.77;95.58
64961;SHT31;51487;52.266;10.542;2023-09-30T01:40:51;13.77;95.29
64961;SHT31;51487;52.266;10.542;2023-09-30T01:43:17;13.77;95.01
64961;SHT31;51487;52.266;10.542;2023-09-30T01:45:43;13.77;94.81
64961;SHT31;51487;52.266;10.542;2023-09-30T01:48:09;13.73;95.03
64961;SHT31;51487;52.266;10.542;2023-09-30T01:50:38;13.75;95.23
64961;SHT31;51487;52.266;10.542;2023-09-30T01:53:05;13.77;95.26
64961;SHT31;51487;52.266;10.542;2023-09-30T01:55:34;13.76;95.13
64961;SHT31;51487;52.266;10.542;2023-09-30T01:58:01;13.75;94.84
64961;SHT31;51487;52.266;10.542;2023-09-30T02:00:27;13.72;94.84
64961;SHT31;51487;52.266;10.542;2023-09-30T02:02:55;13.72;95.07
64961;SHT31;51487;52.266;10.542;2023-09-30T02:05:22;13.67;95.01
64961;SHT31;51487;52.266;10.542;2023-09-30T02:07:48;13.72;94.65
64961;SHT31;51487;52.266;10.542;2023-09-30T02:10:14;13.73;94.51
64961;SHT31;51487;52.266;10.542;2023-09-30T02:12:39;13.69;94.68
64961;SHT31;51487;52.266;10.542;2023-09-30T02:15:06;13.62;94.92
64961;SHT31;51487;52.266;10.542;2023-09-30T02:17:32;13.62;94.60
64961;SHT31;51487;52.266;10.542;2023-09-30T02:19:58;13.62;94.93
64961;SHT31;51487;52.266;10.542;2023-09-30T02:22:24;13.62;94.74
64961;SHT31;51487;52.266;10.542;2023-09-30T02:24:50;13.61;94.79
64961;SHT31;51487;52.266;10.542;2023-09-30T02:27:16;13.54;94.97
64961;SHT31;51487;52.266;10.542;2023-09-30T02:29:41;13.46;94.86
64961;SHT31;51487;52.266;10.542;2023-09-30T02:32:07;13.46;94.89
64961;SHT31;51487;52.266;10.542;2023-09-30T02:34:32;13.45;94.75
64961;SHT31;51487;52.266;10.542;2023-09-30T02:36:58;13.45;94.94
64961;SHT31;51487;52.266;10.542;2023-09-30T02:39:27;13.48;94.64
64961;SHT31;51487;52.266;10.542;2023-09-30T02:41:52;13.45;94.90
64961;SHT31;51487;52.266;10.542;2023-09-30T02:44:18;13.39;94.96
64961;SHT31;51487;52.266;10.542;2023-09-30T02:46:43;13.39;94.83
64961;SHT31;51487;52.266;10.542;2023-09-30T02:49:09;13.32;95.04
64961;SHT31;51487;52.266;10.542;2023-09-30T02:51:34;13.35;94.99
64961;SHT31;51487;52.266;10.542;2023-09-30T02:54:00;13.35;94.92
64961;SHT31;51487;52.266;10.542;2023-09-30T02:56:26;13.32;95.19
64961;SHT31;51487;52.266;10.542;2023-09-30T02:58:53;13.35;95.03
64961;SHT31;51487;52.266;10.542;2023-09-30T03:01:19;13.32;95.08
64961;SHT31;51487;52.266;10.542;2023-09-30T03:03:46;13.27;95.30
64961;SHT31;51487;52.266;10.542;2023-09-30T03:06:12;13.32;95.02
64961;SHT31;51487;52.266;10.542;2023-09-30T03:08:37;13.32;94.80
64961;SHT31;51487;52.266;10.542;2023-09-30T03:11:03;13.28;95.02
64961;SHT31;51487;52.266;10.542;2023-09-30T03:13:30;13.35;94.77
64961;SHT31;51487;52.266;10.542;2023-09-30T03:15:56;13.22;95.12
64961;SHT31;51487;52.266;10.542;2023-09-30T03:18:23;13.18;95.25
64961;SHT31;51487;52.266;10.542;2023-09-30T03:20:57;13.22;94.96
64961;SHT31;51487;52.266;10.542;2023-09-30T03:23:28;13.21;95.11
64961;SHT31;51487;52.266;10.542;2023-09-30T03:25:59;13.29;94.67
64961;SHT31;51487;52.266;10.542;2023-09-30T03:28:26;13.18;95.15
64961;SHT31;51487;52.266;10.542;2023-09-30T03:30:52;13.21;95.19
64961;SHT31;51487;52.266;10.542;2023-09-30T03:33:18;13.19;95.21
64961;SHT31;51487;52.266;10.542;2023-09-30T03:35:43;13.22;94.84
64961;SHT31;51487;52.266;10.542;2023-09-30T03:38:11;13.15;95.11
64961;SHT31;51487;52.266;10.542;2023-09-30T03:40:39;13.18;95.06
64961;SHT31;51487;52.266;10.542;2023-09-30T03:43:05;13.25;94.94
64961;SHT31;51487;52.266;10.542;2023-09-30T03:45:31;13.19;94.96
64961;SHT31;51487;52.266;10.542;2023-09-30T03:48:01;13.21;94.93
64961;SHT31;51487;52.266;10.542;2023-09-30T03:50:28;13.22;95.02
64961;SHT31;51487;52.266;10.542;2023-09-30T03:53:01;13.15;95.37
64961;SHT31;51487;52.266;10.542;2023-09-30T03:55:27;13.27;95.01
64961;SHT31;51487;52.266;10.542;2023-09-30T03:57:55;13.25;95.22
64961;SHT31;51487;52.266;10.542;2023-09-30T04:00:21;13.27;95.14
64961;SHT31;51487;52.266;10.542;2023-09-30T04:02:48;13.28;95.17
64961;SHT31;51487;52.266;10.542;2023-09-30T04:05:15;13.32;95.32
64961;SHT31;51487;52.266;10.542;2023-09-30T04:07:43;13.39;95.07
64961;SHT31;51487;52.266;10.542;2023-09-30T04:10:09;13.41;95.09
64961;SHT31;51487;52.266;10.542;2023-09-30T04:12:35;13.42;94.73
64961;SHT31;51487;52.266;10.542;2023-09-30T04:15:01;13.45;94.84
64961;SHT31;51487;52.266;10.542;2023-09-30T04:17:28;13.35;95.07
64961;SHT31;51487;52.266;10.542;2023-09-30T04:19:54;13.35;95.13
64961;SHT31;51487;52.266;10.542;2023-09-30T04:22:19;13.35;95.03
64961;SHT31;51487;52.266;10.542;2023-09-30T04:24:46;13.28;95.27
64961;SHT31;51487;52.266;10.542;2023-09-30T04:27:12;13.35;94.83
64961;SHT31;51487;52.266;10.542;2023-09-30T04:29:37;13.39;94.86
64961;SHT31;51487;52.266;10.542;2023-09-30T04:32:04;13.37;94.71
64961;SHT31;51487;52.266;10.542;2023-09-30T04:34:30;13.41;94.65
64961;SHT31;51487;52.266;10.542;2023-09-30T04:36:56;13.32;94.88
64961;SHT31;51487;52.266;10.542;2023-09-30T04:39:21;13.37;95.21
64961;SHT31;51487;52.266;10.542;2023-09-30T04:41:47;13.37;94.95
64961;SHT31;51487;52.266;10.542;2023-09-30T04:44:13;13.44;94.86
64961;SHT31;51487;52.266;10.542;2023-09-30T04:46:38;13.42;94.49
64961;SHT31;51487;52.266;10.542;2023-09-30T04:49:14;13.39;94.69
64961;SHT31;51487;52.266;10.542;2023-09-30T04:51:39;13.37;94.82
64961;SHT31;51487;52.266;10.542;2023-09-30T04:54:05;13.35;94.93
64961;SHT31;51487;52.266;10.542;2023-09-30T04:56:34;13.35;94.98
64961;SHT31;51487;52.266;10.542;2023-09-30T04:59:01;13.41;94.77
64961;SHT31;51487;52.266;10.542;2023-09-30T05:01:28;13.45;94.65
64961;SHT31;51487;52.266;10.542;2023-09-30T05:03:53;13.42;94.50
64961;SHT31;51487;52.266;10.542;2023-09-30T05:06:19;13.54;94.34
64961;SHT31;51487;52.266;10.542;2023-09-30T05:08:46;13.51;94.11
64961;SHT31;51487;52.266;10.542;2023-09-30T05:11:13;13.45;94.37
64961;SHT31;51487;52.266;10.542;2023-09-30T05:13:38;13.46;94.48
64961;SHT31;51487;52.266;10.542;2023-09-30T05:16:04;13.41;94.56
64961;SHT31;51487;52.266;10.542;2023-09-30T05:18:29;13.48;94.33
64961;SHT31;51487;52.266;10.542;2023-09-30T05:20:55;13.54;94.12
64961;SHT31;51487;52.266;10.542;2023-09-30T05:23:21;13.55;94.20
64961;SHT31;51487;52.266;10.542;2023-09-30T05:25:47;13.58;94.32
64961;SHT31;51487;52.266;10.542;2023-09-30T05:28:13;13.49;94.39
64961;SHT31;51487;52.266;10.542;2023-09-30T05:30:39;13.49;94.41
64961;SHT31;51487;52.266;10.542;2023-09-30T05:33:06;13.54;94.25
64961;SHT31;51487;52.266;10.542;2023-09-30T05:35:35;13.56;94.43
64961;SHT31;51487;52.266;10.542;2023-09-30T05:38:00;13.56;94.37
64961;SHT31;51487;52.266;10.542;2023-09-30T05:40:26;13.62;94.11
64961;SHT31;51487;52.266;10.542;2023-09-30T05:42:56;13.55;94.14
64961;SHT31;51487;52.266;10.542;2023-09-30T05:45:27;13.56;94.17
64961;SHT31;51487;52.266;10.542;2023-09-30T05:47:54;13.63;94.30
64961;SHT31;51487;52.266;10.542;2023-09-30T05:50:22;13.58;94.07
64961;SHT31;51487;52.266;10.542;2023-09-30T05:52:53;13.55;94.18
64961;SHT31;51487;52.266;10.542;2023-09-30T05:55:19;13.56;94.16
64961;SHT31;51487;52.266;10.542;2023-09-30T05:57:48;13.59;94.29
64961;SHT31;51487;52.266;10.542;2023-09-30T06:00:15;13.63;93.97
64961;SHT31;51487;52.266;10.542;2023-09-30T06:03:08;13.61;93.95
64961;SHT31;51487;52.266;10.542;2023-09-30T06:05:40;13.65;93.98
64961;SHT31;51487;52.266;10.542;2023-09-30T06:08:08;13.63;93.88
64961;SHT31;51487;52.266;10.542;2023-09-30T06:10:36;13.59;93.88
64961;SHT31;51487;52.266;10.542;2023-09-30T06:13:04;13.54;94.01
64961;SHT31;51487;52.266;10.542;2023-09-30T06:15:29;13.55;94.14
64961;SHT31;51487;52.266;10.542;2023-09-30T06:17:56;13.58;94.19
64961;SHT31;51487;52.266;10.542;2023-09-30T06:20:22;13.66;94.01
64961;SHT31;51487;52.266;10.542;2023-09-30T06:22:48;13.72;93.94
64961;SHT31;51487;52.266;10.542;2023-09-30T06:25:19;13.79;93.82
64961;SHT31;51487;52.266;10.542;2023-09-30T06:27:47;13.69;93.69
64961;SHT31;51487;52.266;10.542;2023-09-30T06:30:18;13.72;93.69
64961;SHT31;51487;52.266;10.542;2023-09-30T06:32:47;13.76;93.64
64961;SHT31;51487;52.266;10.542;2023-09-30T06:35:13;13.79;94.03
64961;SHT31;51487;52.266;10.542;2023-09-30T06:37:40;13.79;93.90
64961;SHT31;51487;52.266;10.542;2023-09-30T06:40:08;13.69;93.91
64961;SHT31;51487;52.266;10.542;2023-09-30T06:42:36;13.73;93.79
64961;SHT31;51487;52.266;10.542;2023-09-30T06:45:02;13.79;93.73
64961;SHT31;51487;52.266;10.542;2023-09-30T06:47:34;13.83;93.66
64961;SHT31;51487;52.266;10.542;2023-09-30T06:50:07;13.79;93.51
64961;SHT31;51487;52.266;10.542;2023-09-30T06:52:40;13.82;93.56
64961;SHT31;51487;52.266;10.542;2023-09-30T06:55:07;13.82;93.65
64961;SHT31;51487;52.266;10.542;2023-09-30T06:57:37;13.77;93.32
64961;SHT31;51487;52.266;10.542;2023-09-30T07:00:11;13.70;93.93
64961;SHT31;51487;52.266;10.542;2023-09-30T07:02:38;13.80;93.89
64961;SHT31;51487;52.266;10.542;2023-09-30T07:05:07;13.83;94.01
64961;SHT31;51487;52.266;10.542;2023-09-30T07:07:33;13.90;93.85
64961;SHT31;51487;52.266;10.542;2023-09-30T07:09:59;13.95;93.84
64961;SHT31;51487;52.266;10.542;2023-09-30T07:12:24;13.95;93.57
64961;SHT31;51487;52.266;10.542;2023-09-30T07:14:49;13.96;93.74
64961;SHT31;51487;52.266;10.542;2023-09-30T07:17:15;14.02;93.44
64961;SHT31;51487;52.266;10.542;2023-09-30T07:19:40;14.07;93.11
64961;SHT31;51487;52.266;10.542;2023-09-30T07:22:06;14.16;93.38
64961;SHT31;51487;52.266;10.542;2023-09-30T07:24:31;14.18;92.81
64961;SHT31;51487;52.266;10.542;2023-09-30T07:26:57;14.31;92.64
64961;SHT31;51487;52.266;10.542;2023-09-30T07:29:24;14.27;92.74
64961;SHT31;51487;52.266;10.542;2023-09-30T07:31:49;14.31;92.70
64961;SHT31;51487;52.266;10.542;2023-09-30T07:34:16;14.37;92.46
64961;SHT31;51487;52.266;10.542;2023-09-30T07:36:42;14.40;92.37
64961;SHT31;51487;52.266;10.542;2023-09-30T07:39:07;14.49;91.77
64961;SHT31;51487;52.266;10.542;2023-09-30T07:41:36;14.52;91.72
64961;SHT31;51487;52.266;10.542;2023-09-30T07:44:04;14.54;91.56
64961;SHT31;51487;52.266;10.542;2023-09-30T07:46:31;14.54;92.05
64961;SHT31;51487;52.266;10.542;2023-09-30T07:48:56;14.64;91.31
64961;SHT31;51487;52.266;10.542;2023-09-30T07:51:24;14.79;90.69
64961;SHT31;51487;52.266;10.542;2023-09-30T07:53:49;14.81;90.80
64961;SHT31;51487;52.266;10.542;2023-09-30T07:56:16;14.85;90.70
64961;SHT31;51487;52.266;10.542;2023-09-30T07:58:41;14.91;90.28
64961;SHT31;51487;52.266;10.542;2023-09-30T08:01:08;14.93;90.66
64961;SHT31;51487;52.266;10.542;2023-09-30T08:03:33;15.02;90.74
64961;SHT31;51487;52.266;10.542;2023-09-30T08:06:00;15.07;90.08
64961;SHT31;51487;52.266;10.542;2023-09-30T08:08:26;15.13;89.72
64961;SHT31;51487;52.266;10.542;2023-09-30T08:10:51;15.23;89.09
64961;SHT31;51487;52.266;10.542;2023-09-30T08:13:22;15.32;88.60
64961;SHT31;51487;52.266;10.542;2023-09-30T08:15:50;15.39;88.80
64961;SHT31;51487;52.266;10.542;2023-09-30T08:18:16;15.42;88.31
64961;SHT31;51487;52.266;10.542;2023-09-30T08:20:42;15.51;87.77
64961;SHT31;51487;52.266;10.542;2023-09-30T08:23:07;15.49;87.71
64961;SHT31;51487;52.266;10.542;2023-09-30T08:25:33;15.47;88.04
64961;SHT31;51487;52.266;10.542;2023-09-30T08:27:58;15.53;88.80
64961;SHT31;51487;52.266;10.542;2023-09-30T08:30:24;15.58;88.54
64961;SHT31;51487;52.266;10.542;2023-09-30T08:32:49;15.74;87.48
64961;SHT31;51487;52.266;10.542;2023-09-30T08:35:15;15.74;87.54
64961;SHT31;51487;52.266;10.542;2023-09-30T08:37:41;15.75;87.60
64961;SHT31;51487;52.266;10.542;2023-09-30T08:40:07;15.64;87.69
64961;SHT31;51487;52.266;10.542;2023-09-30T08:42:35;15.71;88.03
64961;SHT31;51487;52.266;10.542;2023-09-30T08:45:01;15.82;87.53
64961;SHT31;51487;52.266;10.542;2023-09-30T08:47:28;15.84;87.76
64961;SHT31;51487;52.266;10.542;2023-09-30T08:50:00;15.85;87.66
64961;SHT31;51487;52.266;10.542;2023-09-30T08:52:32;15.94;87.20
64961;SHT31;51487;52.266;10.542;2023-09-30T08:54:58;15.95;87.45
64961;SHT31;51487;52.266;10.542;2023-09-30T08:57:24;15.98;87.41
64961;SHT31;51487;52.266;10.542;2023-09-30T08:59:52;16.02;87.74
64961;SHT31;51487;52.266;10.542;2023-09-30T09:02:18;16.04;86.83
64961;SHT31;51487;52.266;10.542;2023-09-30T09:04:45;16.13;86.85
64961;SHT31;51487;52.266;10.542;2023-09-30T09:07:12;16.18;87.03
64961;SHT31;51487;52.266;10.542;2023-09-30T09:09:38;16.25;86.28
64961;SHT31;51487;52.266;10.542;2023-09-30T09:12:04;16.30;86.15
64961;SHT31;51487;52.266;10.542;2023-09-30T09:17:03;16.42;85.72
64961;SHT31;51487;52.266;10.542;2023-09-30T09:19:30;16.49;85.64
64961;SHT31;51487;52.266;10.542;2023-09-30T09:22:01;16.55;84.74
64961;SHT31;51487;52.266;10.542;2023-09-30T09:24:44;16.61;85.29
64961;SHT31;51487;52.266;10.542;2023-09-30T09:27:13;16.63;85.37
64961;SHT31;51487;52.266;10.542;2023-09-30T09:29:42;16.71;86.11
64961;SHT31;51487;52.266;10.542;2023-09-30T09:32:15;16.80;85.09
64961;SHT31;51487;52.266;10.542;2023-09-30T09:34:43;16.94;83.76
64961;SHT31;51487;52.266;10.542;2023-09-30T09:37:20;17.04;82.55
64961;SHT31;51487;52.266;10.542;2023-09-30T09:39:50;17.01;82.67
64961;SHT31;51487;52.266;10.542;2023-09-30T09:42:31;17.07;81.94
64961;SHT31;51487;52.266;10.542;2023-09-30T09:45:01;17.22;81.61
64961;SHT31;51487;52.266;10.542;2023-09-30T09:47:29;17.34;82.13
64961;SHT31;51487;52.266;10.542;2023-09-30T09:49:57;17.43;81.20
64961;SHT31;51487;52.266;10.542;2023-09-30T09:52:24;17.46;81.27
64961;SHT31;51487;52.266;10.542;2023-09-30T09:54:51;17.45;80.85
64961;SHT31;51487;52.266;10.542;2023-09-30T09:57:18;17.55;80.19
64961;SHT31;51487;52.266;10.542;2023-09-30T09:59:45;17.56;80.18
64961;SHT31;51487;52.266;10.542;2023-09-30T10:02:16;17.61;80.14
64961;SHT31;51487;52.266;10.542;2023-09-30T10:04:43;17.72;80.11
64961;SHT31;51487;52.266;10.542;2023-09-30T10:07:19;17.77;79.96
64961;SHT31;51487;52.266;10.542;2023-09-30T10:09:49;17.82;79.76
64961;SHT31;51487;52.266;10.542;2023-09-30T10:12:18;17.83;79.91
64961;SHT31;51487;52.266;10.542;2023-09-30T10:14:44;17.90;79.28
64961;SHT31;51487;52.266;10.542;2023-09-30T10:17:10;18.03;79.26
64961;SHT31;51487;52.266;10.542;2023-09-30T10:19:36;18.08;79.35
64961;SHT31;51487;52.266;10.542;2023-09-30T10:22:22;18.03;77.78
64961;SHT31;51487;52.266;10.542;2023-09-30T10:24:50;18.14;77.77
64961;SHT31;51487;52.266;10.542;2023-09-30T10:40:46;18.21;77.56
64961;SHT31;51487;52.266;10.542;2023-09-30T10:43:44;18.31;76.87
64961;SHT31;51487;52.266;10.542;2023-09-30T10:48:54;18.44;76.66
64961;SHT31;51487;52.266;10.542;2023-09-30T10:51:21;18.62;75.50
64961;SHT31;51487;52.266;10.542;2023-09-30T10:53:54;18.61;76.05
64961;SHT31;51487;52.266;10.542;2023-09-30T10:56:32;18.69;75.47
64961;SHT31;51487;52.266;10.542;2023-09-30T10:58:58;18.64;74.66
64961;SHT31;51487;52.266;10.542;2023-09-30T11:01:33;18.68;73.74
64961;SHT31;51487;52.266;10.542;2023-09-30T11:04:02;18.81;73.38
64961;SHT31;51487;52.266;10.542;2023-09-30T11:06:31;18.89;73.67
64961;SHT31;51487;52.266;10.542;2023-09-30T11:08:59;18.85;73.65
64961;SHT31;51487;52.266;10.542;2023-09-30T11:11:46;18.88;73.19
64961;SHT31;51487;52.266;10.542;2023-09-30T11:16:44;19.02;72.82
64961;SHT31;51487;52.266;10.542;2023-09-30T11:19:11;18.99;72.38
64961;SHT31;51487;52.266;10.542;2023-09-30T11:21:38;19.03;71.87
64961;SHT31;51487;52.266;10.542;2023-09-30T11:24:04;19.30;70.38
64961;SHT31;51487;52.266;10.542;2023-09-30T11:26:32;19.36;69.77
64961;SHT31;51487;52.266;10.542;2023-09-30T11:29:10;19.26;69.60
64961;SHT31;51487;52.266;10.542;2023-09-30T11:31:40;19.46;70.05
64961;SHT31;51487;52.266;10.542;2023-09-30T11:34:07;19.55;69.38
64961;SHT31;51487;52.266;10.542;2023-09-30T11:36:41;19.51;69.69
64961;SHT31;51487;52.266;10.542;2023-09-30T11:39:26;19.37;70.16
64961;SHT31;51487;52.266;10.542;2023-09-30T11:41:53;19.40;69.65
64961;SHT31;51487;52.266;10.542;2023-09-30T11:44:18;19.58;69.57
64961;SHT31;51487;52.266;10.542;2023-09-30T11:46:52;19.44;69.07
64961;SHT31;51487;52.266;10.542;2023-09-30T11:49:32;19.64;69.15
64961;SHT31;51487;52.266;10.542;2023-09-30T11:52:11;19.20;69.82
64961;SHT31;51487;52.266;10.542;2023-09-30T11:54:42;19.17;70.68
64961;SHT31;51487;52.266;10.542;2023-09-30T11:57:15;18.95;72.02
64961;SHT31;51487;52.266;10.542;2023-09-30T11:59:42;18.86;72.29
64961;SHT31;51487;52.266;10.542;2023-09-30T12:02:09;18.54;72.91
64961;SHT31;51487;52.266;10.542;2023-09-30T12:04:38;18.48;73.24
64961;SHT31;51487;52.266;10.542;2023-09-30T12:07:05;18.34;73.50
64961;SHT31;51487;52.266;10.542;2023-09-30T12:09:32;18.30;73.50
64961;SHT31;51487;52.266;10.542;2023-09-30T12:12:00;18.31;73.95
64961;SHT31;51487;52.266;10.542;2023-09-30T12:14:26;18.33;73.13
64961;SHT31;51487;52.266;10.542;2023-09-30T12:16:55;18.27;73.18
64961;SHT31;51487;52.266;10.542;2023-09-30T12:19:20;18.36;72.64
64961;SHT31;51487;52.266;10.542;2023-09-30T12:21:47;18.33;70.95
64961;SHT31;51487;52.266;10.542;2023-09-30T12:24:16;18.43;70.43
64961;SHT31;51487;52.266;10.542;2023-09-30T12:26:47;18.54;70.92
64961;SHT31;51487;52.266;10.542;2023-09-30T12:29:18;18.68;70.89
64961;SHT31;51487;52.266;10.542;2023-09-30T12:31:45;18.75;69.31
64961;SHT31;51487;52.266;10.542;2023-09-30T12:34:12;18.59;69.13
64961;SHT31;51487;52.266;10.542;2023-09-30T12:36:39;18.71;70.61
64961;SHT31;51487;52.266;10.542;2023-09-30T12:39:05;18.76;68.94
64961;SHT31;51487;52.266;10.542;2023-09-30T12:41:40;18.75;69.19
64961;SHT31;51487;52.266;10.542;2023-09-30T12:44:07;18.69;68.98
64961;SHT31;51487;52.266;10.542;2023-09-30T12:46:33;18.69;69.09
64961;SHT31;51487;52.266;10.542;2023-09-30T12:49:01;18.88;69.03
64961;SHT31;51487;52.266;10.542;2023-09-30T12:51:28;18.78;68.88
64961;SHT31;51487;52.266;10.542;2023-09-30T12:53:53;18.62;68.04
64961;SHT31;51487;52.266;10.542;2023-09-30T12:56:19;18.55;67.27
64961;SHT31;51487;52.266;10.542;2023-09-30T12:58:44;18.66;67.47
64961;SHT31;51487;52.266;10.542;2023-09-30T13:01:10;18.69;65.56
64961;SHT31;51487;52.266;10.542;2023-09-30T13:03:37;18.84;64.27
64961;SHT31;51487;52.266;10.542;2023-09-30T13:06:02;18.94;64.26
64961;SHT31;51487;52.266;10.542;2023-09-30T13:08:29;19.10;63.29
64961;SHT31;51487;52.266;10.542;2023-09-30T13:11:03;19.07;62.82
64961;SHT31;51487;52.266;10.542;2023-09-30T13:13:29;19.30;62.92
64961;SHT31;51487;52.266;10.542;2023-09-30T13:15:57;19.36;61.98
64961;SHT31;51487;52.266;10.542;2023-09-30T13:18:23;19.47;63.40
64961;SHT31;51487;52.266;10.542;2023-09-30T13:20:48;19.58;61.64
64961;SHT31;51487;52.266;10.542;2023-09-30T13:23:14;19.68;61.55
64961;SHT31;51487;52.266;10.542;2023-09-30T13:25:39;19.78;61.33
64961;SHT31;51487;52.266;10.542;2023-09-30T13:28:05;19.89;60.55
64961;SHT31;51487;52.266;10.542;2023-09-30T13:30:30;19.88;59.83
64961;SHT31;51487;52.266;10.542;2023-09-30T13:32:57;19.74;60.22
64961;SHT31;51487;52.266;10.542;2023-09-30T13:35:23;19.68;60.74
64961;SHT31;51487;52.266;10.542;2023-09-30T13:37:48;19.67;60.85
64961;SHT31;51487;52.266;10.542;2023-09-30T13:40:14;19.84;60.77
64961;SHT31;51487;52.266;10.542;2023-09-30T13:42:40;19.92;60.18
64961;SHT31;51487;52.266;10.542;2023-09-30T13:45:06;19.92;60.19
64961;SHT31;51487;52.266;10.542;2023-09-30T13:47:32;19.89;60.45
64961;SHT31;51487;52.266;10.542;2023-09-30T13:49:58;19.70;60.84
64961;SHT31;51487;52.266;10.542;2023-09-30T13:52:23;19.71;61.17
64961;SHT31;51487;52.266;10.542;2023-09-30T13:54:49;19.77;61.73
64961;SHT31;51487;52.266;10.542;2023-09-30T13:57:15;19.65;61.81
64961;SHT31;51487;52.266;10.542;2023-09-30T13:59:40;19.78;61.41
64961;SHT31;51487;52.266;10.542;2023-09-30T14:02:07;19.68;61.12
64961;SHT31;51487;52.266;10.542;2023-09-30T14:04:32;19.64;60.94
64961;SHT31;51487;52.266;10.542;2023-09-30T14:07:01;19.64;60.66
64961;SHT31;51487;52.266;10.542;2023-09-30T14:09:28;19.77;61.18
64961;SHT31;51487;52.266;10.542;2023-09-30T14:11:54;19.85;61.35
64961;SHT31;51487;52.266;10.542;2023-09-30T14:14:20;19.88;59.05
64961;SHT31;51487;52.266;10.542;2023-09-30T14:16:46;19.96;57.85
64961;SHT31;51487;52.266;10.542;2023-09-30T14:19:13;19.95;58.47
64961;SHT31;51487;52.266;10.542;2023-09-30T14:21:41;20.02;58.41
64961;SHT31;51487;52.266;10.542;2023-09-30T14:24:07;20.01;58.76
64961;SHT31;51487;52.266;10.542;2023-09-30T14:26:33;19.68;59.38
64961;SHT31;51487;52.266;10.542;2023-09-30T14:28:59;19.61;59.67
64961;SHT31;51487;52.266;10.542;2023-09-30T14:31:25;19.51;60.19
64961;SHT31;51487;52.266;10.542;2023-09-30T14:33:51;19.31;60.88
64961;SHT31;51487;52.266;10.542;2023-09-30T14:36:17;19.31;60.72
64961;SHT31;51487;52.266;10.542;2023-09-30T14:38:46;19.26;61.12
64961;SHT31;51487;52.266;10.542;2023-09-30T14:41:12;19.06;60.96
64961;SHT31;51487;52.266;10.542;2023-09-30T14:43:39;18.95;61.73
64961;SHT31;51487;52.266;10.542;2023-09-30T14:46:05;19.05;62.17
64961;SHT31;51487;52.266;10.542;2023-09-30T14:48:31;19.00;62.24
64961;SHT31;51487;52.266;10.542;2023-09-30T14:50:57;19.00;62.01
64961;SHT31;51487;52.266;10.542;2023-09-30T14:53:23;19.10;62.02
64961;SHT31;51487;52.266;10.542;2023-09-30T14:55:50;19.09;62.34
64961;SHT31;51487;52.266;10.542;2023-09-30T14:58:16;19.03;62.02
64961;SHT31;51487;52.266;10.542;2023-09-30T15:00:43;18.96;62.10
64961;SHT31;51487;52.266;10.542;2023-09-30T15:03:08;18.95;62.09
64961;SHT31;51487;52.266;10.542;2023-09-30T15:05:34;18.92;61.90
64961;SHT31;51487;52.266;10.542;2023-09-30T15:08:00;18.95;62.35
64961;SHT31;51487;52.266;10.542;2023-09-30T15:10:29;18.89;62.06
64961;SHT31;51487;52.266;10.542;2023-09-30T15:12:55;18.96;62.00
64961;SHT31;51487;52.266;10.542;2023-09-30T15:15:23;19.05;62.15
64961;SHT31;51487;52.266;10.542;2023-09-30T15:17:49;19.12;61.93
64961;SHT31;51487;52.266;10.542;2023-09-30T15:20:14;19.09;61.69
64961;SHT31;51487;52.266;10.542;2023-09-30T15:22:40;19.06;60.88
64961;SHT31;51487;52.266;10.542;2023-09-30T15:25:06;19.09;61.03
64961;SHT31;51487;52.266;10.542;2023-09-30T15:27:32;19.07;60.76
64961;SHT31;51487;52.266;10.542;2023-09-30T15:30:00;19.06;61.89
64961;SHT31;51487;52.266;10.542;2023-09-30T15:32:26;19.06;61.41
64961;SHT31;51487;52.266;10.542;2023-09-30T15:34:51;19.10;61.46
64961;SHT31;51487;52.266;10.542;2023-09-30T15:37:17;18.96;61.53